Time;durP1;ratioP1;P1;durP2;ratioP2;P2;SDS_P1;SDS_P2;PMS_P1;PMS_P2;Temp;Humidity;BMP_temperature;BMP_pressure;BME280_temperature;BME280_humidity;BME280_pressure;Samples;Min_cycle;Max_cycle;Signal;HPM_P1;HPM_P2
2023/10/31 00:01:49;;;;;;;61.60;9.88;;;14.50;99.80;;;;;;5086214;28;20029;-57
2023/10/31 00:04:15;;;;;;;57.60;9.40;;;14.50;99.80;;;;;;5068058;28;20021;-57
2023/10/31 00:06:40;;;;;;;51.97;9.77;;;14.50;99.80;;;;;;5068234;28;20116;-57
2023/10/31 00:09:06;;;;;;;63.78;9.32;;;14.50;99.80;;;;;;5068045;28;20050;-57
2023/10/31 00:11:32;;;;;;;55.83;9.18;;;14.50;99.80;;;;;;5086175;28;20064;-57
2023/10/31 00:13:57;;;;;;;55.38;8.70;;;14.50;99.80;;;;;;5068016;28;20029;-57
2023/10/31 00:16:23;;;;;;;54.42;9.00;;;14.40;99.70;;;;;;5085999;28;20553;-57
2023/10/31 00:18:48;;;;;;;51.30;8.52;;;14.50;99.70;;;;;;5068145;28;20020;-57
2023/10/31 00:21:14;;;;;;;50.95;8.20;;;14.50;99.70;;;;;;5068019;28;20476;-57
2023/10/31 00:23:44;;;;;;;43.60;8.35;;;14.40;99.70;;;;;;5085930;28;20044;-57
2023/10/31 00:26:09;;;;;;;53.78;8.43;;;14.40;99.70;;;;;;5086028;28;20035;-57
2023/10/31 00:28:35;;;;;;;44.08;7.38;;;14.40;99.70;;;;;;5085839;28;20028;-57
2023/10/31 00:31:01;;;;;;;45.95;7.82;;;14.40;99.70;;;;;;5085772;28;20040;-57
2023/10/31 00:33:27;;;;;;;30.65;6.90;;;14.40;99.70;;;;;;5089014;28;20028;-57
2023/10/31 00:35:52;;;;;;;43.42;7.40;;;14.40;99.60;;;;;;5089799;28;20025;-57
2023/10/31 00:38:18;;;;;;;43.92;7.30;;;14.40;99.60;;;;;;5071620;28;20037;-57
2023/10/31 00:40:43;;;;;;;32.10;5.90;;;14.40;99.60;;;;;;5071792;28;20033;-57
2023/10/31 00:43:09;;;;;;;39.53;6.45;;;14.40;99.50;;;;;;5089483;28;20032;-57
2023/10/31 00:45:34;;;;;;;29.55;5.32;;;14.40;99.50;;;;;;5071654;28;20067;-53
2023/10/31 00:48:00;;;;;;;29.73;5.80;;;14.40;99.50;;;;;;5071702;28;20024;-53
2023/10/31 00:50:25;;;;;;;32.95;6.18;;;14.40;99.50;;;;;;5071574;28;20037;-53
2023/10/31 00:52:51;;;;;;;29.33;6.00;;;14.30;99.50;;;;;;5071412;28;20024;-54
2023/10/31 00:55:16;;;;;;;36.10;5.40;;;14.40;99.50;;;;;;5089325;28;20036;-53
2023/10/31 00:57:42;;;;;;;32.33;6.07;;;14.30;99.50;;;;;;5071402;28;20028;-53
2023/10/31 01:00:09;;;;;;;25.40;5.43;;;14.30;99.40;;;;;;5071356;28;20021;-53
2023/10/31 01:02:35;;;;;;;25.10;5.40;;;14.30;99.40;;;;;;5089129;28;20098;-53
2023/10/31 01:05:00;;;;;;;34.22;5.60;;;14.30;99.40;;;;;;5071433;28;20028;-53
2023/10/31 01:07:26;;;;;;;24.38;5.63;;;14.30;99.40;;;;;;5071238;28;20471;-53
2023/10/31 01:09:52;;;;;;;20.48;5.60;;;14.30;99.40;;;;;;5088934;28;20029;-53
2023/10/31 01:12:17;;;;;;;25.52;4.70;;;14.30;99.50;;;;;;5070596;28;20028;-53
2023/10/31 01:14:43;;;;;;;28.00;4.90;;;14.30;99.50;;;;;;5070707;28;20035;-53
2023/10/31 01:17:08;;;;;;;25.33;5.28;;;14.30;99.50;;;;;;5070763;28;20060;-53
2023/10/31 01:19:34;;;;;;;29.40;4.40;;;14.30;99.50;;;;;;5070891;28;20080;-53
2023/10/31 01:21:59;;;;;;;29.00;4.40;;;14.30;99.40;;;;;;5070539;28;20037;-53
2023/10/31 01:24:25;;;;;;;20.33;4.65;;;14.20;99.40;;;;;;5070818;28;20028;-53
2023/10/31 01:26:50;;;;;;;29.95;4.75;;;14.20;99.50;;;;;;5070956;28;20495;-53
2023/10/31 01:29:16;;;;;;;28.20;5.28;;;14.30;99.50;;;;;;5070807;28;20024;-53
2023/10/31 01:31:42;;;;;;;17.90;4.40;;;14.20;99.70;;;;;;5070639;28;20064;-53
2023/10/31 01:34:08;;;;;;;22.80;4.82;;;14.20;99.40;;;;;;5070643;28;20032;-53
2023/10/31 01:36:33;;;;;;;28.90;5.32;;;14.20;99.40;;;;;;5070975;28;20032;-53
2023/10/31 01:38:59;;;;;;;23.90;4.75;;;14.20;99.40;;;;;;5070714;28;20046;-53
2023/10/31 01:41:24;;;;;;;16.25;4.28;;;14.20;99.40;;;;;;5088608;28;20388;-53
2023/10/31 01:43:50;;;;;;;22.42;4.82;;;14.20;99.20;;;;;;5087215;28;20036;-53
2023/10/31 01:46:15;;;;;;;25.33;4.60;;;14.20;99.20;;;;;;5070605;28;20020;-53
2023/10/31 01:48:41;;;;;;;21.42;3.88;;;14.20;99.20;;;;;;5088284;28;20058;-53
2023/10/31 01:51:07;;;;;;;14.60;4.07;;;14.20;99.10;;;;;;5070488;28;20029;-53
2023/10/31 01:53:33;;;;;;;20.58;4.60;;;14.20;99.10;;;;;;5070451;28;20084;-54
2023/10/31 01:56:01;;;;;;;13.20;3.92;;;14.20;99.10;;;;;;5070173;28;20036;-53
2023/10/31 01:58:29;;;;;;;16.65;3.88;;;14.20;99.10;;;;;;5070483;28;20028;-53
2023/10/31 02:00:55;;;;;;;12.52;3.67;;;14.10;99.00;;;;;;5088205;28;20046;-53
2023/10/31 02:03:21;;;;;;;17.50;4.95;;;14.10;99.00;;;;;;5070160;28;20035;-53
2023/10/31 02:05:47;;;;;;;16.98;3.65;;;14.10;99.00;;;;;;5070218;28;20025;-53
2023/10/31 02:08:12;;;;;;;18.88;3.92;;;14.10;99.00;;;;;;5069914;28;20084;-53
2023/10/31 02:10:38;;;;;;;19.88;3.90;;;14.10;98.90;;;;;;5070247;28;20034;-53
2023/10/31 02:13:16;;;;;;;12.65;3.25;;;14.10;98.90;;;;;;5087750;28;20036;-53
2023/10/31 02:15:42;;;;;;;16.52;3.47;;;14.10;98.90;;;;;;5070859;28;20030;-53
2023/10/31 02:18:08;;;;;;;17.42;3.90;;;14.10;98.90;;;;;;5069897;28;20055;-53
2023/10/31 02:20:33;;;;;;;17.88;3.65;;;14.10;98.90;;;;;;5069884;28;20441;-53
2023/10/31 02:22:59;;;;;;;9.80;2.78;;;14.10;98.90;;;;;;5069755;28;20100;-53
2023/10/31 02:25:24;;;;;;;13.50;3.08;;;14.10;98.80;;;;;;5069792;28;20025;-53
2023/10/31 02:27:50;;;;;;;13.02;3.55;;;14.10;98.80;;;;;;5087464;28;20028;-53
2023/10/31 02:30:16;;;;;;;8.18;2.38;;;14.10;98.70;;;;;;5069703;28;20024;-53
2023/10/31 02:32:41;;;;;;;9.77;2.72;;;14.00;98.70;;;;;;5087391;28;20074;-53
2023/10/31 02:35:07;;;;;;;13.82;3.40;;;14.00;98.70;;;;;;5069864;28;20495;-53
2023/10/31 02:37:33;;;;;;;12.98;2.88;;;14.00;98.70;;;;;;5069362;28;20017;-53
2023/10/31 02:39:59;;;;;;;10.95;3.10;;;14.00;98.60;;;;;;5069598;28;20021;-53
2023/10/31 02:42:25;;;;;;;10.75;2.70;;;14.00;98.60;;;;;;5087132;28;20073;-53
2023/10/31 02:44:50;;;;;;;10.65;2.90;;;14.00;98.60;;;;;;5069210;28;20029;-53
2023/10/31 02:47:16;;;;;;;8.80;2.83;;;14.00;98.60;;;;;;5087227;28;20035;-53
2023/10/31 02:49:42;;;;;;;9.15;2.80;;;14.00;98.60;;;;;;5069110;28;20027;-53
2023/10/31 02:52:07;;;;;;;12.75;2.50;;;14.00;98.70;;;;;;5087083;28;20025;-52
2023/10/31 02:54:33;;;;;;;6.68;2.67;;;14.00;98.60;;;;;;5086828;28;20038;-53
2023/10/31 02:56:58;;;;;;;8.52;2.72;;;14.00;98.50;;;;;;5069305;28;20035;-53
2023/10/31 02:59:24;;;;;;;7.97;2.60;;;14.00;98.50;;;;;;5068944;28;20029;-53
2023/10/31 03:01:49;;;;;;;8.65;2.55;;;14.00;98.50;;;;;;5069010;28;20020;-53
2023/10/31 03:04:15;;;;;;;9.60;3.08;;;14.00;98.50;;;;;;5087102;28;20035;-53
2023/10/31 03:06:40;;;;;;;10.27;2.55;;;13.90;98.40;;;;;;5069106;28;20040;-53
2023/10/31 03:09:06;;;;;;;12.40;2.83;;;13.90;98.40;;;;;;5068867;28;20040;-53
2023/10/31 03:11:32;;;;;;;12.57;2.40;;;13.90;98.40;;;;;;5068942;28;20070;-53
2023/10/31 03:13:58;;;;;;;10.00;2.30;;;13.90;98.40;;;;;;5068740;28;20039;-53
2023/10/31 03:16:23;;;;;;;7.82;2.50;;;13.90;98.40;;;;;;5068753;28;20032;-53
2023/10/31 03:18:49;;;;;;;10.85;2.60;;;13.90;98.30;;;;;;5051925;28;20052;-53
2023/10/31 03:21:15;;;;;;;7.60;2.40;;;13.90;98.20;;;;;;5085202;28;20062;-53
2023/10/31 03:23:41;;;;;;;5.97;2.10;;;13.90;98.10;;;;;;5085398;28;20036;-53
2023/10/31 03:26:07;;;;;;;7.32;2.65;;;13.90;98.10;;;;;;5068655;28;20040;-53
2023/10/31 03:28:32;;;;;;;6.22;2.15;;;13.90;98.00;;;;;;5068569;28;20044;-53
2023/10/31 03:30:58;;;;;;;7.80;2.03;;;13.90;98.00;;;;;;5086450;28;20120;-53
2023/10/31 03:33:24;;;;;;;5.20;1.67;;;13.90;98.00;;;;;;5068439;28;20043;-53
2023/10/31 03:35:49;;;;;;;6.85;2.33;;;13.90;98.00;;;;;;5086073;28;20029;-53
2023/10/31 03:38:15;;;;;;;6.10;2.25;;;13.90;98.00;;;;;;5069726;28;20021;-53
2023/10/31 03:40:41;;;;;;;7.07;2.03;;;13.80;97.90;;;;;;5069821;28;20058;-53
2023/10/31 03:43:06;;;;;;;7.70;1.90;;;13.80;97.80;;;;;;5069338;28;20049;-53
2023/10/31 03:45:32;;;;;;;6.53;1.77;;;13.80;97.70;;;;;;5069148;28;20389;-53
2023/10/31 03:47:58;;;;;;;5.30;1.83;;;13.80;97.70;;;;;;5068761;28;20097;-53
2023/10/31 03:50:23;;;;;;;4.90;1.55;;;13.80;97.70;;;;;;5086429;28;20178;-53
2023/10/31 03:52:49;;;;;;;4.15;1.95;;;13.80;97.60;;;;;;5086093;28;20121;-53
2023/10/31 03:55:14;;;;;;;8.95;2.20;;;13.70;97.60;;;;;;5086257;28;20017;-53
2023/10/31 03:57:40;;;;;;;7.07;2.08;;;13.70;97.60;;;;;;5086183;28;20028;-53
2023/10/31 04:00:07;;;;;;;6.38;2.00;;;13.70;97.70;;;;;;5085962;28;20060;-53
2023/10/31 04:02:33;;;;;;;10.18;2.60;;;13.70;97.70;;;;;;5086090;28;20491;-53
2023/10/31 04:04:58;;;;;;;6.90;2.40;;;13.70;97.80;;;;;;5086004;28;20041;-53
2023/10/31 04:07:24;;;;;;;8.02;2.53;;;13.70;97.80;;;;;;5087977;28;20021;-53
2023/10/31 04:09:49;;;;;;;6.75;2.70;;;13.70;98.20;;;;;;5072427;28;20025;-53
2023/10/31 04:12:15;;;;;;;8.68;2.58;;;13.70;97.90;;;;;;5090356;28;20016;-53
2023/10/31 04:14:40;;;;;;;9.38;2.60;;;13.70;97.80;;;;;;5055387;28;20050;-53
2023/10/31 04:17:06;;;;;;;11.35;2.67;;;13.70;98.10;;;;;;5072249;28;20044;-53
2023/10/31 04:19:31;;;;;;;8.30;2.35;;;13.70;98.20;;;;;;5072109;28;20029;-53
2023/10/31 04:21:57;;;;;;;6.07;2.15;;;13.70;98.20;;;;;;5071905;28;20075;-53
2023/10/31 04:24:22;;;;;;;8.90;2.38;;;13.60;98.00;;;;;;5072151;28;20064;-53
2023/10/31 04:26:48;;;;;;;6.95;2.20;;;13.60;98.00;;;;;;5090076;28;20032;-53
2023/10/31 04:29:14;;;;;;;8.55;2.30;;;13.60;97.90;;;;;;5055358;28;20078;-53
2023/10/31 04:31:39;;;;;;;9.25;2.65;;;13.70;98.00;;;;;;5071874;28;20024;-53
2023/10/31 04:34:05;;;;;;;5.32;2.55;;;13.60;98.00;;;;;;5071834;28;20036;-53
2023/10/31 04:36:30;;;;;;;7.28;2.38;;;13.60;98.00;;;;;;5089756;28;20029;-53
2023/10/31 04:38:56;;;;;;;8.45;2.42;;;13.60;98.00;;;;;;5071581;28;20027;-53
2023/10/31 04:41:21;;;;;;;5.57;2.00;;;13.60;98.00;;;;;;5071848;28;20021;-53
2023/10/31 04:43:47;;;;;;;8.55;2.60;;;13.60;98.00;;;;;;5089613;28;20097;-53
2023/10/31 04:46:12;;;;;;;9.30;2.45;;;13.60;98.10;;;;;;5089452;28;20032;-53
2023/10/31 04:48:38;;;;;;;7.78;2.20;;;13.60;98.00;;;;;;5089502;28;20064;-53
2023/10/31 04:51:04;;;;;;;5.13;1.85;;;13.60;98.00;;;;;;5071726;28;20032;-53
2023/10/31 04:53:32;;;;;;;6.38;2.33;;;13.60;98.00;;;;;;5071373;28;20024;-53
2023/10/31 04:55:57;;;;;;;5.43;1.90;;;13.60;98.00;;;;;;5071796;28;20067;-53
2023/10/31 04:58:23;;;;;;;7.32;2.55;;;13.60;98.00;;;;;;5071467;28;20036;-53
2023/10/31 05:00:48;;;;;;;5.95;1.80;;;13.60;98.00;;;;;;5071176;28;20111;-53
2023/10/31 05:03:14;;;;;;;6.15;2.10;;;13.60;97.90;;;;;;5089329;28;20038;-53
2023/10/31 05:05:39;;;;;;;5.50;2.10;;;13.60;97.90;;;;;;5071151;28;20021;-53
2023/10/31 05:08:05;;;;;;;6.13;2.17;;;13.50;97.80;;;;;;5071062;28;20033;-53
2023/10/31 05:10:30;;;;;;;6.57;1.85;;;13.50;97.80;;;;;;5070990;28;20037;-53
2023/10/31 05:12:56;;;;;;;6.95;2.50;;;13.60;97.80;;;;;;5070417;28;20094;-53
2023/10/31 05:15:22;;;;;;;5.95;2.40;;;13.50;97.70;;;;;;5069191;28;20119;-53
2023/10/31 05:17:48;;;;;;;6.50;2.28;;;13.60;97.70;;;;;;5069538;28;20047;-53
2023/10/31 05:20:13;;;;;;;5.47;1.92;;;13.50;97.60;;;;;;5071177;28;20039;-53
2023/10/31 05:22:40;;;;;;;4.38;2.10;;;13.50;97.60;;;;;;5088581;28;20029;-53
2023/10/31 05:25:06;;;;;;;6.65;2.13;;;13.50;97.60;;;;;;5071118;28;20081;-53
2023/10/31 05:27:33;;;;;;;5.90;1.88;;;13.50;97.60;;;;;;5070840;28;20055;-53
2023/10/31 05:29:58;;;;;;;6.90;2.08;;;13.50;97.50;;;;;;5070764;28;20029;-53
2023/10/31 05:32:24;;;;;;;7.57;2.00;;;13.50;97.50;;;;;;5070474;28;20024;-53
2023/10/31 05:34:49;;;;;;;2.45;1.52;;;13.50;97.50;;;;;;5088500;28;20090;-53
2023/10/31 05:37:15;;;;;;;5.28;2.10;;;13.50;97.40;;;;;;5088499;28;20483;-53
2023/10/31 05:39:40;;;;;;;5.10;1.98;;;13.40;97.40;;;;;;5070741;28;20421;-53
2023/10/31 05:42:09;;;;;;;5.90;2.03;;;13.50;97.40;;;;;;5088499;28;20033;-53
2023/10/31 05:44:34;;;;;;;5.85;1.67;;;13.40;97.30;;;;;;5088237;28;20024;-53
2023/10/31 05:47:00;;;;;;;4.15;1.67;;;13.50;97.30;;;;;;5088507;28;20043;-53
2023/10/31 05:49:25;;;;;;;4.15;1.88;;;13.40;97.30;;;;;;5088075;28;20029;-53
2023/10/31 05:51:51;;;;;;;5.93;1.75;;;13.40;97.30;;;;;;5070392;28;20591;-53
2023/10/31 05:54:17;;;;;;;3.50;1.75;;;13.50;97.30;;;;;;5053579;28;20480;-53
2023/10/31 05:56:43;;;;;;;5.70;1.70;;;13.40;97.20;;;;;;5086861;28;20028;-53
2023/10/31 05:59:08;;;;;;;5.50;1.95;;;13.40;97.20;;;;;;5070105;28;20019;-53
2023/10/31 06:01:34;;;;;;;3.67;1.33;;;13.40;97.20;;;;;;5069896;28;20490;-53
2023/10/31 06:03:59;;;;;;;4.40;1.60;;;13.50;97.20;;;;;;5069838;28;20380;-53
2023/10/31 06:06:25;;;;;;;3.63;1.73;;;13.50;97.20;;;;;;5070129;28;20059;-55
2023/10/31 06:08:50;;;;;;;9.00;1.70;;;13.40;97.20;;;;;;5069854;28;20028;-53
2023/10/31 06:11:16;;;;;;;3.92;1.75;;;13.40;97.10;;;;;;5070042;28;20037;-53
2023/10/31 06:13:41;;;;;;;2.03;1.35;;;13.40;97.10;;;;;;5069782;28;20028;-53
2023/10/31 06:16:07;;;;;;;2.78;1.48;;;13.40;97.00;;;;;;5087752;28;20028;-53
2023/10/31 06:18:33;;;;;;;4.03;1.90;;;13.40;97.00;;;;;;5069809;28;20033;-53
2023/10/31 06:20:59;;;;;;;4.15;1.65;;;13.40;96.90;;;;;;5069539;28;20032;-53
2023/10/31 06:23:24;;;;;;;3.17;1.40;;;13.40;96.90;;;;;;5069620;28;20128;-53
2023/10/31 06:25:50;;;;;;;6.05;1.80;;;13.40;96.90;;;;;;5069414;28;20029;-53
2023/10/31 06:28:16;;;;;;;5.60;1.55;;;13.40;96.90;;;;;;5087452;28;20036;-53
2023/10/31 06:30:41;;;;;;;3.60;1.30;;;13.40;96.80;;;;;;5068905;28;20025;-53
2023/10/31 06:33:08;;;;;;;6.03;1.70;;;13.30;96.80;;;;;;5069273;28;20059;-53
2023/10/31 06:35:34;;;;;;;6.10;1.20;;;13.30;96.80;;;;;;5069685;28;20086;-53
2023/10/31 06:38:01;;;;;;;5.25;1.35;;;13.30;96.80;;;;;;5087524;28;20028;-53
2023/10/31 06:40:26;;;;;;;3.83;1.70;;;13.40;96.80;;;;;;5069488;28;20063;-53
2023/10/31 06:42:52;;;;;;;2.78;1.45;;;13.30;96.80;;;;;;5069244;28;20384;-53
2023/10/31 06:45:17;;;;;;;2.60;1.25;;;13.40;96.80;;;;;;5069510;28;20044;-54
2023/10/31 06:47:43;;;;;;;6.97;1.40;;;13.30;96.80;;;;;;5069728;28;20036;-53
2023/10/31 06:50:09;;;;;;;5.57;1.65;;;13.30;96.80;;;;;;5069148;28;20044;-53
2023/10/31 06:52:35;;;;;;;3.63;1.23;;;13.30;96.80;;;;;;5052248;28;20476;-53
2023/10/31 06:55:00;;;;;;;5.28;1.58;;;13.30;96.80;;;;;;5069037;28;20103;-53
2023/10/31 06:57:26;;;;;;;3.85;1.50;;;13.30;96.80;;;;;;5088016;28;20419;-54
2023/10/31 06:59:51;;;;;;;2.25;1.10;;;13.30;96.80;;;;;;5068995;28;20031;-53
2023/10/31 07:02:17;;;;;;;2.33;1.30;;;13.30;96.80;;;;;;5067917;28;20047;-54
2023/10/31 07:04:43;;;;;;;5.80;1.23;;;13.30;96.80;;;;;;5050874;28;20025;-53
2023/10/31 07:07:08;;;;;;;3.45;1.13;;;13.30;96.90;;;;;;5052112;28;20472;-53
2023/10/31 07:09:34;;;;;;;3.65;1.25;;;13.30;96.90;;;;;;5061044;28;20031;-53
2023/10/31 07:11:59;;;;;;;3.85;1.48;;;13.30;96.90;;;;;;5048845;28;20035;-53
2023/10/31 07:14:25;;;;;;;4.05;1.35;;;13.20;96.80;;;;;;5079238;28;20053;-53
2023/10/31 07:16:50;;;;;;;2.45;1.27;;;13.30;96.90;;;;;;5086007;28;20025;-53
2023/10/31 07:19:16;;;;;;;3.58;1.27;;;13.30;96.90;;;;;;5068512;28;20025;-53
2023/10/31 07:21:41;;;;;;;5.45;1.38;;;13.30;96.90;;;;;;5066604;28;20036;-53
2023/10/31 07:24:08;;;;;;;4.35;1.50;;;13.30;96.90;;;;;;5068395;28;20044;-53
2023/10/31 07:26:35;;;;;;;5.25;1.33;;;13.30;96.90;;;;;;5086313;28;20028;-53
2023/10/31 07:29:00;;;;;;;3.42;1.23;;;13.30;96.90;;;;;;5049744;28;20111;-53
2023/10/31 07:31:26;;;;;;;3.78;1.17;;;13.20;96.90;;;;;;5079592;28;20036;-53
2023/10/31 07:33:52;;;;;;;3.92;1.35;;;13.30;96.90;;;;;;5086351;28;20036;-53
2023/10/31 07:36:17;;;;;;;2.85;1.20;;;13.20;96.80;;;;;;5068249;28;20017;-53
2023/10/31 07:38:43;;;;;;;3.72;1.30;;;13.20;96.80;;;;;;5085926;28;20039;-53
2023/10/31 07:41:08;;;;;;;3.53;1.17;;;13.20;96.90;;;;;;5085202;28;20025;-53
2023/10/31 07:43:34;;;;;;;3.80;1.48;;;13.30;96.90;;;;;;5051240;28;20029;-53
2023/10/31 07:46:00;;;;;;;5.72;1.50;;;13.30;96.90;;;;;;5057634;28;20029;-53
2023/10/31 07:48:25;;;;;;;6.55;1.60;;;13.30;96.90;;;;;;5085202;28;20024;-54
2023/10/31 07:50:51;;;;;;;8.82;1.80;;;13.20;96.90;;;;;;5051586;28;20506;-53
2023/10/31 07:53:17;;;;;;;6.20;1.75;;;13.20;97.20;;;;;;5086001;28;20035;-53
2023/10/31 07:55:43;;;;;;;20.13;2.53;;;13.20;96.90;;;;;;5067842;28;20468;-53
2023/10/31 07:58:09;;;;;;;19.65;2.65;;;13.20;97.00;;;;;;5061603;28;20043;-53
2023/10/31 08:00:35;;;;;;;15.20;2.65;;;13.20;97.00;;;;;;5083133;28;20081;-53
2023/10/31 08:03:01;;;;;;;18.67;2.97;;;13.30;97.00;;;;;;5068384;28;20035;-53
2023/10/31 08:05:27;;;;;;;16.85;2.90;;;13.30;97.00;;;;;;5077381;28;20036;-53
2023/10/31 08:07:52;;;;;;;22.98;2.65;;;13.30;97.10;;;;;;5056217;28;20024;-53
2023/10/31 08:10:18;;;;;;;29.00;3.58;;;13.30;97.00;;;;;;5069528;28;20093;-53
2023/10/31 08:12:44;;;;;;;44.30;5.32;;;13.30;97.10;;;;;;5058867;28;20531;-53
2023/10/31 08:15:09;;;;;;;30.50;4.43;;;13.30;97.00;;;;;;5078784;28;20056;-53
2023/10/31 08:17:35;;;;;;;28.33;3.00;;;13.30;97.10;;;;;;5077408;28;20051;-53
2023/10/31 08:20:03;;;;;;;23.30;3.70;;;13.30;97.10;;;;;;5085047;28;20028;-53
2023/10/31 08:22:29;;;;;;;30.02;4.68;;;13.30;97.10;;;;;;5076917;28;20025;-53
2023/10/31 08:24:54;;;;;;;31.80;5.00;;;13.30;97.10;;;;;;5059141;28;20025;-53
2023/10/31 08:27:20;;;;;;;53.42;6.40;;;13.30;97.20;;;;;;5060618;28;20031;-53
2023/10/31 08:29:45;;;;;;;38.08;4.65;;;13.30;97.30;;;;;;5058317;28;20063;-53
2023/10/31 08:32:11;;;;;;;40.85;5.43;;;13.30;97.20;;;;;;5059184;28;20040;-53
2023/10/31 08:34:37;;;;;;;51.30;5.90;;;13.30;97.30;;;;;;5061013;28;20032;-54
2023/10/31 08:37:02;;;;;;;40.25;5.32;;;13.30;97.30;;;;;;5073099;28;20036;-54
2023/10/31 08:39:28;;;;;;;31.30;4.47;;;13.40;97.30;;;;;;5070160;28;20035;-53
2023/10/31 08:41:54;;;;;;;42.03;4.88;;;13.30;97.20;;;;;;5045424;28;20029;-53
2023/10/31 08:44:20;;;;;;;30.67;4.43;;;13.40;97.30;;;;;;5045209;28;20091;-53
2023/10/31 08:46:45;;;;;;;45.42;5.32;;;13.40;97.40;;;;;;5078275;28;20033;-53
2023/10/31 08:49:12;;;;;;;53.75;6.07;;;13.50;97.30;;;;;;5063176;28;20151;-53
2023/10/31 08:51:38;;;;;;;41.72;5.32;;;13.40;97.10;;;;;;5065354;28;20028;-53
2023/10/31 08:54:03;;;;;;;54.30;6.20;;;13.50;97.00;;;;;;5051184;28;20558;-53
2023/10/31 08:56:29;;;;;;;47.47;5.00;;;13.50;96.90;;;;;;5070940;28;20064;-54
2023/10/31 08:58:55;;;;;;;48.15;5.25;;;13.50;96.90;;;;;;5054777;28;20040;-53
2023/10/31 09:01:20;;;;;;;44.30;6.18;;;13.50;96.90;;;;;;5050391;28;20469;-53
2023/10/31 09:03:46;;;;;;;58.33;7.30;;;13.50;96.90;;;;;;5033655;28;20032;-53
2023/10/31 09:06:12;;;;;;;48.65;6.20;;;13.50;97.00;;;;;;5076734;28;20033;-53
2023/10/31 09:08:38;;;;;;;55.92;7.13;;;13.60;97.00;;;;;;5057815;28;20606;-54
2023/10/31 09:11:04;;;;;;;49.42;6.43;;;13.60;97.00;;;;;;5061890;28;20040;-53
2023/10/31 09:13:30;;;;;;;50.47;7.28;;;13.60;96.90;;;;;;5072518;28;20055;-53
2023/10/31 09:15:59;;;;;;;80.03;9.00;;;13.60;96.90;;;;;;5052243;28;20082;-53
2023/10/31 09:18:25;;;;;;;89.22;9.02;;;13.60;96.90;;;;;;5076514;28;20020;-58
2023/10/31 09:20:51;;;;;;;50.72;7.22;;;13.60;97.00;;;;;;5059064;28;20042;-58
2023/10/31 09:23:17;;;;;;;62.75;7.60;;;13.70;97.00;;;;;;5055715;28;20060;-57
2023/10/31 09:25:43;;;;;;;52.83;6.72;;;13.70;96.90;;;;;;5065959;28;20040;-58
2023/10/31 09:28:09;;;;;;;55.15;6.28;;;13.70;96.90;;;;;;5064711;28;20031;-57
2023/10/31 09:30:34;;;;;;;59.47;6.82;;;13.70;96.80;;;;;;5052333;28;20041;-57
2023/10/31 09:33:00;;;;;;;56.97;7.35;;;13.70;96.80;;;;;;5050418;28;20063;-57
2023/10/31 09:35:26;;;;;;;67.63;9.25;;;13.70;96.80;;;;;;5075853;28;20032;-58
2023/10/31 09:37:52;;;;;;;51.58;6.60;;;13.70;96.80;;;;;;5054079;28;20016;-57
2023/10/31 09:40:17;;;;;;;47.70;6.35;;;13.70;96.80;;;;;;5057827;28;20028;-57
2023/10/31 09:42:44;;;;;;;141.57;16.08;;;13.70;96.70;;;;;;5040468;28;20035;-57
2023/10/31 09:45:10;;;;;;;179.32;16.20;;;13.70;96.70;;;;;;5053596;28;20112;-57
2023/10/31 09:47:36;;;;;;;62.70;8.07;;;13.70;96.80;;;;;;5067918;28;20048;-57
2023/10/31 09:50:01;;;;;;;66.70;7.90;;;13.80;96.70;;;;;;5071057;28;20496;-57
2023/10/31 09:52:27;;;;;;;128.32;13.10;;;13.80;96.70;;;;;;5060179;28;20017;-57
2023/10/31 09:54:52;;;;;;;126.78;14.23;;;13.80;96.70;;;;;;5060291;28;20033;-58
2023/10/31 09:57:18;;;;;;;86.20;12.13;;;13.80;96.60;;;;;;5056024;28;20021;-57
2023/10/31 09:59:44;;;;;;;75.32;10.00;;;13.80;96.60;;;;;;5060640;28;20060;-57
2023/10/31 10:02:09;;;;;;;70.05;9.68;;;13.90;96.60;;;;;;5075601;28;20037;-57
2023/10/31 10:04:36;;;;;;;84.97;10.23;;;13.90;96.60;;;;;;5069915;28;20413;-57
2023/10/31 10:07:02;;;;;;;85.22;11.50;;;13.90;96.60;;;;;;5046144;28;20120;-57
2023/10/31 10:09:28;;;;;;;68.40;9.50;;;13.90;96.50;;;;;;5046222;28;20116;-57
2023/10/31 10:11:54;;;;;;;81.65;10.45;;;14.00;96.50;;;;;;5044852;28;20036;-57
2023/10/31 10:14:22;;;;;;;62.95;10.10;;;14.00;96.40;;;;;;5073710;28;20027;-57
2023/10/31 10:16:48;;;;;;;120.35;14.57;;;14.00;96.60;;;;;;5063416;28;20349;-57
2023/10/31 10:19:20;;;;;;;163.45;18.63;;;14.00;96.20;;;;;;5066948;28;20029;-57
2023/10/31 10:21:55;;;;;;;114.93;15.63;;;14.00;96.20;;;;;;5068018;28;20044;-57
2023/10/31 10:24:22;;;;;;;94.43;12.10;;;14.00;96.30;;;;;;5048362;28;20092;-58
2023/10/31 10:26:48;;;;;;;87.10;12.05;;;14.10;96.20;;;;;;5065561;28;20116;-57
2023/10/31 10:29:14;;;;;;;79.13;12.70;;;14.10;96.10;;;;;;5072236;28;20040;-57
2023/10/31 10:31:40;;;;;;;97.85;13.57;;;14.10;96.10;;;;;;5054095;28;20046;-57
2023/10/31 10:34:06;;;;;;;131.88;15.48;;;14.10;96.00;;;;;;5070867;28;20029;-57
2023/10/31 10:36:32;;;;;;;99.85;11.63;;;14.10;96.00;;;;;;5085865;28;20029;-57
2023/10/31 10:38:58;;;;;;;97.68;12.52;;;14.10;96.00;;;;;;5070479;28;20039;-57
2023/10/31 10:41:25;;;;;;;69.35;9.98;;;14.20;96.00;;;;;;5063625;28;20033;-58
2023/10/31 10:43:54;;;;;;;77.45;10.50;;;14.20;96.00;;;;;;5059634;28;20037;-58
2023/10/31 10:46:19;;;;;;;106.47;13.32;;;14.20;95.90;;;;;;5052765;28;20033;-57
2023/10/31 10:48:47;;;;;;;98.35;13.32;;;14.20;96.00;;;;;;5062211;28;20051;-58
2023/10/31 10:51:21;;;;;;;85.50;12.80;;;14.20;96.00;;;;;;5060383;28;20106;-57
2023/10/31 10:53:55;;;;;;;97.40;13.85;;;14.20;95.90;;;;;;5056644;28;20024;-57
2023/10/31 10:56:34;;;;;;;94.45;11.00;;;14.20;95.80;;;;;;5057313;28;20025;-57
2023/10/31 10:59:13;;;;;;;83.15;11.70;;;14.30;95.80;;;;;;5032075;28;20108;-57
2023/10/31 11:01:39;;;;;;;101.13;12.10;;;14.30;95.60;;;;;;5066788;28;20047;-57
2023/10/31 11:04:05;;;;;;;95.20;12.65;;;14.30;95.70;;;;;;5048595;28;20029;-57
2023/10/31 11:06:31;;;;;;;87.20;11.52;;;14.30;95.80;;;;;;5077571;28;20145;-57
2023/10/31 11:08:57;;;;;;;156.63;17.75;;;14.30;95.80;;;;;;5073731;28;20050;-57
2023/10/31 11:11:23;;;;;;;118.82;16.80;;;14.30;95.80;;;;;;5059698;28;20119;-57
2023/10/31 11:13:49;;;;;;;113.65;16.05;;;14.40;95.80;;;;;;5031497;28;20029;-58
2023/10/31 11:16:24;;;;;;;138.20;16.45;;;14.40;95.80;;;;;;5030378;28;20025;-57
2023/10/31 11:18:50;;;;;;;102.45;14.23;;;14.40;95.90;;;;;;5043859;28;20032;-57
2023/10/31 11:21:15;;;;;;;123.97;14.50;;;14.40;95.80;;;;;;5067808;28;21322;-57
2023/10/31 11:23:41;;;;;;;105.15;14.35;;;14.40;95.80;;;;;;5090303;28;20092;-57
2023/10/31 11:26:10;;;;;;;135.80;15.68;;;14.40;95.70;;;;;;5064382;28;20036;-57
2023/10/31 11:28:35;;;;;;;121.10;14.30;;;14.40;95.70;;;;;;5036853;28;20024;-58
2023/10/31 11:31:02;;;;;;;107.22;12.20;;;14.40;95.70;;;;;;5055257;28;20134;-58
2023/10/31 11:33:28;;;;;;;84.95;11.57;;;14.50;95.70;;;;;;5051872;28;20028;-58
2023/10/31 11:36:00;;;;;;;84.85;12.18;;;14.50;95.60;;;;;;5056843;28;20040;-57
2023/10/31 11:38:35;;;;;;;102.07;12.55;;;14.50;95.50;;;;;;5055449;28;20036;-58
2023/10/31 11:41:01;;;;;;;88.18;10.82;;;14.50;95.50;;;;;;5065162;28;20033;-57
2023/10/31 11:43:38;;;;;;;73.15;9.35;;;14.60;95.40;;;;;;5068820;28;20042;-57
2023/10/31 11:46:04;;;;;;;67.30;9.43;;;14.60;95.50;;;;;;5058634;28;20044;-58
2023/10/31 11:48:50;;;;;;;55.13;9.13;;;14.60;95.20;;;;;;5050846;28;20028;-58
2023/10/31 11:51:15;;;;;;;61.92;9.98;;;14.60;95.10;;;;;;5044992;28;20040;-58
2023/10/31 11:53:41;;;;;;;55.13;7.38;;;14.60;95.00;;;;;;5062298;28;20036;-58
2023/10/31 11:56:07;;;;;;;48.72;7.55;;;14.60;95.00;;;;;;5039240;28;20028;-57
2023/10/31 11:58:32;;;;;;;51.22;8.15;;;14.60;94.90;;;;;;5054266;28;20049;-58
2023/10/31 12:01:03;;;;;;;48.40;7.97;;;14.60;94.80;;;;;;5047853;28;20025;-58
2023/10/31 12:03:28;;;;;;;64.70;7.97;;;14.60;94.70;;;;;;5079453;28;20025;-58
2023/10/31 12:05:59;;;;;;;57.55;7.93;;;14.60;94.70;;;;;;5047539;28;20565;-58
2023/10/31 12:08:30;;;;;;;59.58;9.65;;;14.60;94.70;;;;;;5029695;28;20028;-58
2023/10/31 12:11:15;;;;;;;51.65;8.57;;;14.60;94.70;;;;;;5062378;28;20029;-58
2023/10/31 12:14:03;;;;;;;31.48;5.20;;;14.60;94.80;;;;;;5073380;28;20032;-58
2023/10/31 12:16:32;;;;;;;34.92;6.03;;;14.60;94.70;;;;;;5079758;28;20080;-58
2023/10/31 12:19:02;;;;;;;41.38;6.40;;;14.60;94.70;;;;;;5065318;28;20028;-58
2023/10/31 12:21:47;;;;;;;50.50;8.10;;;14.60;94.70;;;;;;5059069;28;20081;-58
2023/10/31 12:24:17;;;;;;;46.80;6.38;;;14.60;94.70;;;;;;5082461;28;20035;-57
2023/10/31 12:26:42;;;;;;;47.03;6.18;;;14.60;94.70;;;;;;5051751;28;20531;-57
2023/10/31 12:29:12;;;;;;;52.53;8.88;;;14.60;94.80;;;;;;5049769;28;20029;-58
2023/10/31 12:31:47;;;;;;;126.95;14.50;;;14.60;94.70;;;;;;5066084;28;20029;-58
2023/10/31 12:34:14;;;;;;;76.85;9.48;;;14.60;94.90;;;;;;5085050;28;20045;-58